createdAt,value
2018-03-20T00:00:59.653Z,45.18
2018-03-20T00:03:27.915Z,45.66
2018-03-20T00:05:56.186Z,45.90
2018-03-20T00:08:24.452Z,44.75
2018-03-20T00:10:52.738Z,46.68
2018-03-20T00:13:21.020Z,45.44
2018-03-20T00:15:49.278Z,45.84
2018-03-20T00:18:17.550Z,47.51
2018-03-20T00:20:45.819Z,47.66
2018-03-20T00:23:14.098Z,46.70
2018-03-20T00:25:42.359Z,47.38
2018-03-20T00:28:10.638Z,48.52
2018-03-20T00:30:38.907Z,47.82
2018-03-20T00:33:07.171Z,48.85
2018-03-20T00:35:35.440Z,48.82
2018-03-20T00:38:03.710Z,49.37
2018-03-20T00:40:31.987Z,48.64
2018-03-20T00:43:00.279Z,49.26
2018-03-20T00:45:28.544Z,48.75
2018-03-20T00:47:56.874Z,48.38
2018-03-20T00:50:25.158Z,48.64
2018-03-20T00:52:53.421Z,47.62
2018-03-20T00:55:21.690Z,47.67
2018-03-20T00:57:49.963Z,47.29
2018-03-20T01:00:18.220Z,46.98
2018-03-20T01:02:46.490Z,48.28
2018-03-20T01:05:14.766Z,48.67
2018-03-20T01:07:43.035Z,47.74
2018-03-20T01:10:11.298Z,48.74
2018-03-20T01:12:39.554Z,49.71
2018-03-20T01:15:07.818Z,48.90
2018-03-20T01:17:36.140Z,48.47
2018-03-20T01:20:04.363Z,49.34
2018-03-20T01:22:32.630Z,50.59
2018-03-20T01:25:00.914Z,48.73
2018-03-20T01:27:29.183Z,49.92
2018-03-20T01:29:57.444Z,50.52
2018-03-20T01:32:25.719Z,49.39
2018-03-20T01:34:53.973Z,49.67
2018-03-20T01:37:22.241Z,49.66
2018-03-20T01:39:50.506Z,50.50
2018-03-20T01:42:20.670Z,50.46
2018-03-20T01:44:48.947Z,49.46
2018-03-20T01:47:17.218Z,49.51
2018-03-20T01:49:45.478Z,51.57
2018-03-20T01:52:13.747Z,50.30
2018-03-20T01:54:42.019Z,49.29
2018-03-20T01:57:10.287Z,49.88
2018-03-20T01:59:38.551Z,49.38
2018-03-20T02:02:06.835Z,51.16
2018-03-20T02:04:35.103Z,48.91
2018-03-20T02:07:03.371Z,51.36
2018-03-20T02:09:31.643Z,49.49
2018-03-20T02:11:59.902Z,50.96
2018-03-20T02:14:28.178Z,51.22
2018-03-20T02:16:56.443Z,53.09
2018-03-20T02:19:24.699Z,51.16
2018-03-20T02:21:52.986Z,50.54
2018-03-20T02:24:21.246Z,50.99
2018-03-20T02:26:49.814Z,51.84
2018-03-20T02:29:18.075Z,48.94
2018-03-20T02:31:46.391Z,48.82
2018-03-20T02:34:14.654Z,48.62
2018-03-20T02:36:42.923Z,49.64
2018-03-20T02:39:11.567Z,48.95
2018-03-20T02:41:39.841Z,50.56
2018-03-20T02:44:08.099Z,50.02
2018-03-20T02:46:37.294Z,51.27
2018-03-20T02:49:05.566Z,50.34
2018-03-20T02:51:33.843Z,50.85
2018-03-20T02:54:02.123Z,50.63
2018-03-20T02:56:30.375Z,50.92
2018-03-20T02:59:02.242Z,50.08
2018-03-20T03:01:30.511Z,51.86
2018-03-20T03:03:58.780Z,52.03
2018-03-20T03:06:27.046Z,50.75
2018-03-20T03:08:55.315Z,51.30
2018-03-20T03:11:23.585Z,51.59
2018-03-20T03:13:51.847Z,52.35
2018-03-20T03:16:20.122Z,50.73
2018-03-20T03:18:48.384Z,51.66
2018-03-20T03:21:16.655Z,51.34
2018-03-20T03:23:44.936Z,51.08
2018-03-20T03:26:13.209Z,52.80
2018-03-20T03:28:41.482Z,53.84
2018-03-20T03:31:09.748Z,50.79
2018-03-20T03:33:38.023Z,51.53
2018-03-20T03:36:06.286Z,51.29
2018-03-20T03:38:34.546Z,51.27
2018-03-20T03:41:02.819Z,51.21
2018-03-20T03:43:31.083Z,50.73
2018-03-20T03:45:59.344Z,50.64
2018-03-20T03:48:27.605Z,53.69
2018-03-20T03:50:55.862Z,53.22
2018-03-20T03:53:24.128Z,52.24
2018-03-20T03:55:52.398Z,50.65
2018-03-20T03:58:20.664Z,52.68
2018-03-20T04:00:48.940Z,50.55
2018-03-20T04:03:17.194Z,52.11
2018-03-20T04:05:45.494Z,52.44
2018-03-20T04:08:13.758Z,51.63
2018-03-20T04:10:42.027Z,50.33
2018-03-20T04:13:10.300Z,51.47
2018-03-20T04:15:38.571Z,50.49
2018-03-20T04:18:06.869Z,49.17
2018-03-20T04:20:35.118Z,48.31
2018-03-20T04:23:03.383Z,49.03
2018-03-20T04:25:31.659Z,49.82
2018-03-20T04:27:59.927Z,48.15
2018-03-20T04:30:28.211Z,50.45
2018-03-20T04:32:56.478Z,50.57
2018-03-20T04:35:24.739Z,49.17
2018-03-20T04:37:53.023Z,49.76
2018-03-20T04:40:21.286Z,49.79
2018-03-20T04:42:49.563Z,49.36
2018-03-20T04:45:17.829Z,49.06
2018-03-20T04:47:46.618Z,50.09
2018-03-20T04:50:14.895Z,48.71
2018-03-20T04:52:43.149Z,48.27
2018-03-20T04:55:11.422Z,49.06
2018-03-20T04:57:39.687Z,49.08
2018-03-20T05:00:07.946Z,47.66
2018-03-20T05:02:36.219Z,46.73
2018-03-20T05:05:04.487Z,48.05
2018-03-20T05:07:32.754Z,49.29
2018-03-20T05:10:01.019Z,48.40
2018-03-20T05:12:29.283Z,48.71
2018-03-20T05:14:57.554Z,48.16
2018-03-20T05:17:25.814Z,47.78
2018-03-20T05:19:59.976Z,48.63
2018-03-20T05:22:33.958Z,48.15
2018-03-20T05:25:02.551Z,48.81
2018-03-20T05:27:30.819Z,48.35
2018-03-20T05:29:59.082Z,48.31
2018-03-20T05:32:27.363Z,49.45
2018-03-20T05:34:55.636Z,47.32
2018-03-20T05:37:23.910Z,46.72
2018-03-20T05:39:52.178Z,49.22
2018-03-20T05:42:20.450Z,48.82
2018-03-20T05:44:48.738Z,47.64
2018-03-20T05:47:17.350Z,48.96
2018-03-20T05:52:57.446Z,47.41
2018-03-20T05:55:25.715Z,47.44
2018-03-20T05:58:05.470Z,47.77
2018-03-20T06:00:33.745Z,48.34
2018-03-20T06:03:18.657Z,49.44
2018-03-20T06:05:46.934Z,49.07
2018-03-20T06:08:15.199Z,48.93
2018-03-20T06:10:43.462Z,49.06
2018-03-20T06:13:11.740Z,49.23
2018-03-20T06:15:40.009Z,50.10
2018-03-20T06:18:08.295Z,49.56
2018-03-20T06:20:36.558Z,49.86
2018-03-20T06:23:04.827Z,49.88
2018-03-20T06:25:33.186Z,50.67
2018-03-20T06:28:01.452Z,49.78
2018-03-20T06:30:29.714Z,49.35
2018-03-20T06:32:57.995Z,51.17
2018-03-20T06:35:26.271Z,50.71
2018-03-20T06:37:54.539Z,51.84
2018-03-20T06:40:22.812Z,52.47
2018-03-20T06:42:51.108Z,53.62
2018-03-20T06:45:19.374Z,52.52
2018-03-20T06:47:47.794Z,52.08
2018-03-20T06:50:16.068Z,52.63
2018-03-20T06:52:44.356Z,53.48
2018-03-20T06:55:32.453Z,54.89
2018-03-20T06:58:00.722Z,53.91
2018-03-20T07:00:28.990Z,55.89
2018-03-20T07:02:57.262Z,55.50
2018-03-20T07:05:25.524Z,56.11
2018-03-20T07:07:53.798Z,56.04
2018-03-20T07:10:22.063Z,56.67
2018-03-20T07:12:50.334Z,57.14
2018-03-20T07:15:18.614Z,57.58
2018-03-20T07:17:46.875Z,57.39
2018-03-20T07:20:15.155Z,58.92
2018-03-20T07:22:43.419Z,61.09
2018-03-20T07:25:11.682Z,60.26
2018-03-20T07:27:39.952Z,60.80
2018-03-20T07:30:08.211Z,62.38
2018-03-20T07:32:36.482Z,62.65
2018-03-20T07:35:04.759Z,63.59
2018-03-20T07:37:33.024Z,63.05
2018-03-20T07:40:01.303Z,63.09
2018-03-20T07:42:29.562Z,64.50
2018-03-20T07:44:57.847Z,64.28
2018-03-20T07:47:26.119Z,64.56
2018-03-20T07:49:54.388Z,63.79
2018-03-20T07:52:22.681Z,63.79
2018-03-20T07:54:50.930Z,63.52
2018-03-20T07:57:19.231Z,62.12
2018-03-20T07:59:47.499Z,64.20
2018-03-20T08:02:15.771Z,63.56
2018-03-20T08:04:44.043Z,63.04
2018-03-20T08:07:12.323Z,62.18
2018-03-20T08:09:40.603Z,63.25
2018-03-20T08:12:08.875Z,64.64
2018-03-20T08:14:37.167Z,63.32
2018-03-20T08:17:05.447Z,63.02
2018-03-20T08:19:33.772Z,63.63
2018-03-20T08:22:02.078Z,62.71
2018-03-20T08:24:30.348Z,62.75
2018-03-20T08:26:58.636Z,61.87
2018-03-20T08:29:26.923Z,61.54
2018-03-20T08:31:55.187Z,61.53
2018-03-20T08:34:23.804Z,62.48
2018-03-20T08:36:52.079Z,60.69
2018-03-20T08:39:20.360Z,61.71
2018-03-20T08:41:48.624Z,63.76
2018-03-20T08:44:16.895Z,63.06
2018-03-20T08:46:45.178Z,62.01
2018-03-20T08:49:13.459Z,63.04
2018-03-20T08:51:41.722Z,62.73
2018-03-20T08:54:10.203Z,65.04
2018-03-20T08:56:38.474Z,63.90
2018-03-20T08:59:06.759Z,65.07
2018-03-20T09:01:35.035Z,64.24
2018-03-20T09:04:03.307Z,64.69
2018-03-20T09:06:31.592Z,65.99
2018-03-20T09:08:59.862Z,65.79
2018-03-20T09:11:28.169Z,66.19
2018-03-20T09:13:56.438Z,66.54
2018-03-20T09:16:24.711Z,66.93
2018-03-20T09:21:47.519Z,67.86
2018-03-20T09:24:15.799Z,67.87
2018-03-20T09:26:44.075Z,67.36
2018-03-20T09:29:12.350Z,67.29
2018-03-20T09:31:40.644Z,67.58
2018-03-20T09:34:08.911Z,66.86
2018-03-20T09:36:37.200Z,66.97
2018-03-20T09:39:05.475Z,66.49
2018-03-20T09:41:33.922Z,66.01
2018-03-20T09:44:02.206Z,66.07
2018-03-20T09:46:30.503Z,65.17
2018-03-20T09:48:58.841Z,65.03
2018-03-20T09:51:27.059Z,65.84
2018-03-20T09:53:55.644Z,65.30
2018-03-20T09:56:23.919Z,65.28
2018-03-20T09:58:52.184Z,65.30
2018-03-20T10:01:20.471Z,65.37
2018-03-20T10:03:48.739Z,64.51
2018-03-20T10:06:17.051Z,65.66
2018-03-20T10:08:45.326Z,66.72
2018-03-20T10:11:13.598Z,66.19
2018-03-20T10:13:41.879Z,65.57
2018-03-20T10:16:10.154Z,67.32
2018-03-20T10:18:38.468Z,66.15
2018-03-20T10:21:06.736Z,66.46
2018-03-20T10:23:35.010Z,66.62
2018-03-20T10:26:03.290Z,64.73
2018-03-20T10:28:31.564Z,65.55
2018-03-20T10:30:59.831Z,64.87
2018-03-20T10:33:28.109Z,64.93
2018-03-20T10:35:56.398Z,64.62
2018-03-20T10:38:24.750Z,64.52
2018-03-20T10:40:52.967Z,64.16
2018-03-20T10:43:21.239Z,63.77
2018-03-20T10:45:51.446Z,62.67
2018-03-20T10:48:19.731Z,62.55
2018-03-20T10:50:49.320Z,62.27
2018-03-20T10:53:19.585Z,61.24
2018-03-20T10:55:51.894Z,60.78
2018-03-20T10:58:20.178Z,59.97
2018-03-20T11:00:48.932Z,58.89
2018-03-20T11:03:17.214Z,59.34
2018-03-20T11:05:45.490Z,58.66
2018-03-20T11:08:13.776Z,57.15
2018-03-20T11:10:43.064Z,56.54
2018-03-20T11:13:11.331Z,54.74
2018-03-20T11:15:39.635Z,54.81
2018-03-20T11:18:07.921Z,53.42
2018-03-20T11:20:36.222Z,55.08
2018-03-20T11:23:04.514Z,53.73
2018-03-20T11:25:32.776Z,52.54
2018-03-20T11:28:01.061Z,52.34
2018-03-20T11:30:29.326Z,51.11
2018-03-20T11:32:57.628Z,50.45
2018-03-20T11:35:25.888Z,51.83
2018-03-20T11:37:54.159Z,50.33
2018-03-20T11:40:22.551Z,49.20
2018-03-20T11:42:51.913Z,48.70
2018-03-20T11:45:20.205Z,46.88
2018-03-20T11:47:48.475Z,46.59
2018-03-20T11:50:16.755Z,44.04
2018-03-20T11:52:45.030Z,44.30
2018-03-20T11:55:13.295Z,42.94
2018-03-20T11:57:41.596Z,42.55
2018-03-20T12:00:09.887Z,41.74
2018-03-20T12:02:38.163Z,42.38
2018-03-20T12:05:07.551Z,40.28
2018-03-20T12:07:35.834Z,41.48
2018-03-20T12:10:04.103Z,40.57
2018-03-20T12:12:32.370Z,39.77
2018-03-20T12:15:00.639Z,38.77
2018-03-20T12:17:30.902Z,38.41
2018-03-20T12:20:00.047Z,37.78
2018-03-20T12:22:29.349Z,38.10
2018-03-20T12:24:58.566Z,38.25
2018-03-20T12:27:26.826Z,38.80
2018-03-20T12:29:55.118Z,38.94
2018-03-20T12:32:23.393Z,38.94
2018-03-20T12:34:51.655Z,38.38
2018-03-20T12:37:19.909Z,38.79
2018-03-20T12:39:48.171Z,37.92
2018-03-20T12:42:16.434Z,37.36
2018-03-20T12:44:49.588Z,38.30
2018-03-20T12:47:17.875Z,37.16
2018-03-20T12:49:46.128Z,33.87
2018-03-20T12:52:14.395Z,34.67
2018-03-20T12:54:52.439Z,34.10
2018-03-20T12:57:20.720Z,34.08
2018-03-20T12:59:48.983Z,34.09
2018-03-20T13:02:17.242Z,33.00
2018-03-20T13:04:46.851Z,33.40
2018-03-20T13:07:15.322Z,33.04
2018-03-20T13:09:51.061Z,33.14
2018-03-20T13:12:19.362Z,32.06
2018-03-20T13:14:47.630Z,32.07
2018-03-20T13:17:15.901Z,32.23
2018-03-20T13:19:44.169Z,32.53
2018-03-20T13:22:12.445Z,31.78
2018-03-20T13:24:41.706Z,31.65
2018-03-20T13:27:09.959Z,32.22
2018-03-20T13:29:40.218Z,33.16
2018-03-20T13:32:21.142Z,32.48
2018-03-20T13:34:51.430Z,34.09
2018-03-20T13:37:19.690Z,31.59
2018-03-20T13:39:48.021Z,32.38
2018-03-20T13:42:16.278Z,33.54
2018-03-20T13:44:44.539Z,32.38
2018-03-20T13:47:13.104Z,32.35
2018-03-20T13:49:41.367Z,31.38
2018-03-20T13:52:09.627Z,31.58
2018-03-20T13:54:37.895Z,31.39
2018-03-20T13:57:06.158Z,30.18
2018-03-20T13:59:34.442Z,30.15
2018-03-20T14:02:02.713Z,29.31
2018-03-20T14:04:30.989Z,30.33
2018-03-20T14:06:59.246Z,29.63
2018-03-20T14:09:27.508Z,29.32
2018-03-20T14:11:55.796Z,28.86
2018-03-20T14:14:37.207Z,28.44
2018-03-20T14:17:05.430Z,28.88
2018-03-20T14:19:39.243Z,29.09
2018-03-20T14:22:07.519Z,28.67
2018-03-20T14:24:35.784Z,28.03
2018-03-20T14:27:04.034Z,29.22
2018-03-20T14:29:32.311Z,29.11
2018-03-20T14:32:00.575Z,28.97
2018-03-20T14:34:29.815Z,28.63
2018-03-20T14:36:58.093Z,28.10
2018-03-20T14:39:26.358Z,27.24
2018-03-20T14:41:54.619Z,27.87
2018-03-20T14:44:22.883Z,27.89
2018-03-20T14:46:51.166Z,28.43
2018-03-20T14:49:20.359Z,27.51
2018-03-20T14:51:48.681Z,27.67
2018-03-20T14:54:16.938Z,27.87
2018-03-20T14:56:45.200Z,27.58
2018-03-20T14:59:31.116Z,27.10
2018-03-20T15:01:59.381Z,27.24
2018-03-20T15:04:27.638Z,28.02
2018-03-20T15:06:56.815Z,27.57
2018-03-20T15:09:37.567Z,27.12
2018-03-20T15:12:05.840Z,26.40
2018-03-20T15:14:36.013Z,24.84
2018-03-20T15:17:04.293Z,25.19
2018-03-20T15:19:32.562Z,26.08
2018-03-20T15:22:00.813Z,26.23
2018-03-20T15:24:29.087Z,26.58
2018-03-20T15:26:57.345Z,26.49
2018-03-20T15:29:25.891Z,26.61
2018-03-20T15:31:54.171Z,24.30
2018-03-20T15:34:32.543Z,25.27
2018-03-20T15:37:01.829Z,26.13
2018-03-20T15:39:30.044Z,26.44
2018-03-20T15:41:58.299Z,27.10
2018-03-20T15:44:26.564Z,27.03
2018-03-20T15:46:54.850Z,28.32
2018-03-20T15:49:23.118Z,27.15
2018-03-20T15:51:51.377Z,27.61
2018-03-20T15:54:19.655Z,27.27
2018-03-20T15:56:48.911Z,26.36
2018-03-20T15:59:17.178Z,26.91
2018-03-20T16:01:45.440Z,27.32
2018-03-20T16:04:13.704Z,27.22
2018-03-20T16:06:46.886Z,27.42
2018-03-20T16:09:25.378Z,26.73
2018-03-20T16:11:53.679Z,27.00
2018-03-20T16:14:21.951Z,27.40
2018-03-20T16:16:50.228Z,27.41
2018-03-20T16:19:18.501Z,27.76
2018-03-20T16:21:46.763Z,27.45
2018-03-20T16:24:15.038Z,27.12
2018-03-20T16:26:43.356Z,26.42
2018-03-20T16:29:17.436Z,26.68
2018-03-20T16:31:45.698Z,26.80
2018-03-20T16:34:13.974Z,26.80
2018-03-20T16:36:42.240Z,27.19
2018-03-20T16:39:10.510Z,27.22
2018-03-20T16:41:38.791Z,27.64
2018-03-20T16:44:07.047Z,28.04
2018-03-20T16:49:08.783Z,27.79
2018-03-20T16:51:37.039Z,28.15
2018-03-20T16:54:05.609Z,28.33
2018-03-20T16:56:33.863Z,28.81
2018-03-20T16:59:02.123Z,28.83
2018-03-20T17:01:30.386Z,28.76
2018-03-20T17:03:58.647Z,28.14
2018-03-20T17:06:26.950Z,28.09
2018-03-20T17:08:55.208Z,28.25
2018-03-20T17:11:23.464Z,30.04
2018-03-20T17:13:51.737Z,29.45
2018-03-20T17:16:20.001Z,32.93
2018-03-20T17:18:48.284Z,28.93
2018-03-20T17:21:16.540Z,29.70
2018-03-20T17:23:44.820Z,30.16
2018-03-20T17:26:13.087Z,30.33
2018-03-20T17:28:41.366Z,31.15
2018-03-20T17:31:09.693Z,29.67
2018-03-20T17:33:37.921Z,29.67
2018-03-20T17:36:06.175Z,30.21
2018-03-20T17:38:34.439Z,30.86
2018-03-20T17:41:02.702Z,31.17
2018-03-20T17:43:30.971Z,30.35
2018-03-20T17:45:59.239Z,30.67
2018-03-20T17:48:27.490Z,30.56
2018-03-20T17:50:55.767Z,31.17
2018-03-20T17:53:24.046Z,30.75
2018-03-20T17:55:52.357Z,30.23
2018-03-20T17:58:20.588Z,31.23
2018-03-20T18:00:48.842Z,31.26
2018-03-20T18:03:17.139Z,30.56
2018-03-20T18:05:45.395Z,31.04
2018-03-20T18:08:13.649Z,30.71
2018-03-20T18:10:41.911Z,30.92
2018-03-20T18:13:10.259Z,33.29
2018-03-20T18:15:38.951Z,31.10
2018-03-20T18:18:07.206Z,31.44
2018-03-20T18:20:35.467Z,30.65
2018-03-20T18:23:03.790Z,30.77
2018-03-20T18:25:32.091Z,31.41
2018-03-20T18:28:00.374Z,31.01
2018-03-20T18:30:28.590Z,32.40
2018-03-20T18:32:56.861Z,32.92
2018-03-20T18:35:25.127Z,32.08
2018-03-20T18:37:53.392Z,32.38
2018-03-20T18:40:21.662Z,31.46
2018-03-20T18:42:49.929Z,31.91
2018-03-20T18:45:18.180Z,32.16
2018-03-20T18:47:46.459Z,32.13
2018-03-20T18:50:14.735Z,31.86
2018-03-20T18:52:43.016Z,32.89
2018-03-20T18:55:11.273Z,31.97
2018-03-20T18:57:39.524Z,32.62
2018-03-20T19:00:07.825Z,33.83
2018-03-20T19:02:36.111Z,32.53
2018-03-20T19:05:04.378Z,32.07
2018-03-20T19:07:32.635Z,33.88
2018-03-20T19:10:00.905Z,33.24
2018-03-20T19:12:29.167Z,34.57
2018-03-20T19:14:57.426Z,34.13
2018-03-20T19:17:25.704Z,33.97
2018-03-20T19:19:53.962Z,34.96
2018-03-20T19:22:24.226Z,34.30
2018-03-20T19:24:52.490Z,35.30
2018-03-20T19:27:20.805Z,35.33
2018-03-20T19:29:49.088Z,34.44
2018-03-20T19:32:17.343Z,34.05
2018-03-20T19:34:45.598Z,35.15
2018-03-20T19:37:14.206Z,36.79
2018-03-20T19:39:42.471Z,35.90
2018-03-20T19:42:10.734Z,36.14
2018-03-20T19:44:39.011Z,36.46
2018-03-20T19:47:07.276Z,37.77
2018-03-20T19:49:35.550Z,38.06
2018-03-20T19:52:04.064Z,37.86
2018-03-20T19:54:32.331Z,38.52
2018-03-20T19:57:00.610Z,38.60
2018-03-20T19:59:29.211Z,39.27
2018-03-20T20:01:57.484Z,38.76
2018-03-20T20:04:25.743Z,37.64
2018-03-20T20:06:54.011Z,37.53
2018-03-20T20:09:22.284Z,38.88
2018-03-20T20:11:50.555Z,37.28
2018-03-20T20:14:18.831Z,36.68
2018-03-20T20:16:47.079Z,36.82
2018-03-20T20:19:15.342Z,38.10
2018-03-20T20:21:43.598Z,37.22
2018-03-20T20:24:11.878Z,35.70
2018-03-20T20:26:41.088Z,37.46
2018-03-20T20:29:09.338Z,35.44
2018-03-20T20:31:37.607Z,35.94
2018-03-20T20:34:05.862Z,37.76
2018-03-20T20:36:34.134Z,36.81
2018-03-20T20:39:02.392Z,36.20
2018-03-20T20:41:30.671Z,36.00
2018-03-20T20:43:58.941Z,37.59
2018-03-20T20:46:27.203Z,40.14
2018-03-20T20:48:55.813Z,37.30
2018-03-20T20:51:24.079Z,38.73
2018-03-20T20:53:52.351Z,45.01
2018-03-20T20:56:20.616Z,40.34
2018-03-20T20:58:48.892Z,37.55
2018-03-20T21:01:19.174Z,40.02
2018-03-20T21:03:47.434Z,39.28
2018-03-20T21:06:15.690Z,39.06
2018-03-20T21:08:43.951Z,37.88
2018-03-20T21:11:18.946Z,41.42
2018-03-20T21:13:47.223Z,40.34
2018-03-20T21:16:15.483Z,38.55
2018-03-20T21:18:43.736Z,40.10
2018-03-20T21:21:12.955Z,40.50
2018-03-20T21:23:41.211Z,40.25
2018-03-20T21:26:09.478Z,41.67
2018-03-20T21:28:37.738Z,44.07
2018-03-20T21:31:05.999Z,41.02
2018-03-20T21:33:34.310Z,41.08
2018-03-20T21:36:02.576Z,40.41
2018-03-20T21:38:30.847Z,41.98
2018-03-20T21:40:59.106Z,40.30
2018-03-20T21:43:27.360Z,41.58
2018-03-20T21:45:55.623Z,40.28
2018-03-20T21:48:23.903Z,40.82
2018-03-20T21:50:52.179Z,40.73
2018-03-20T21:53:20.442Z,40.72
2018-03-20T21:55:48.719Z,41.80
2018-03-20T21:58:17.006Z,42.33
2018-03-20T22:00:45.247Z,42.80
2018-03-20T22:03:13.562Z,42.72
2018-03-20T22:05:41.822Z,43.65
2018-03-20T22:08:10.118Z,43.89
2018-03-20T22:10:38.374Z,41.52
2018-03-20T22:13:06.645Z,43.20
2018-03-20T22:15:35.834Z,42.84
2018-03-20T22:18:04.087Z,43.05
2018-03-20T22:20:32.354Z,43.86
2018-03-20T22:23:00.607Z,42.63
2018-03-20T22:25:28.874Z,41.95
2018-03-20T22:27:57.155Z,42.99
2018-03-20T22:30:25.418Z,43.58
2018-03-20T22:32:53.675Z,44.25
2018-03-20T22:35:25.623Z,43.22
2018-03-20T22:37:53.885Z,43.67
2018-03-20T22:40:22.151Z,42.70
2018-03-20T22:42:50.411Z,45.29
2018-03-20T22:45:18.681Z,43.36
2018-03-20T22:47:46.943Z,44.69
2018-03-20T22:50:15.243Z,44.25
2018-03-20T22:52:43.503Z,45.03
2018-03-20T22:55:11.762Z,45.28
2018-03-20T22:57:40.028Z,46.14
2018-03-20T23:00:08.307Z,44.98
2018-03-20T23:02:36.571Z,45.02
2018-03-20T23:05:04.866Z,43.77
2018-03-20T23:07:33.143Z,45.13
2018-03-20T23:10:01.405Z,44.88
2018-03-20T23:12:29.674Z,45.04
2018-03-20T23:14:57.948Z,46.37
2018-03-20T23:17:26.235Z,46.90
2018-03-20T23:19:54.494Z,46.91
2018-03-20T23:22:22.766Z,47.85
2018-03-20T23:24:51.032Z,47.81
2018-03-20T23:27:19.284Z,47.58
2018-03-20T23:29:47.556Z,47.32
2018-03-20T23:32:15.819Z,47.06
2018-03-20T23:34:44.075Z,47.08
2018-03-20T23:37:12.339Z,47.99
2018-03-20T23:39:40.599Z,48.19
2018-03-20T23:42:08.883Z,48.65
2018-03-20T23:44:37.147Z,48.22
2018-03-20T23:47:05.415Z,46.79
2018-03-20T23:49:33.695Z,47.36
2018-03-20T23:52:01.951Z,47.93
2018-03-20T23:54:30.226Z,47.78
2018-03-20T23:56:58.488Z,47.35
2018-03-20T23:59:26.738Z,47.89
